createdAt,value
2023-04-24T00:04:15.367Z,99131.22
2023-04-24T00:09:16.798Z,99124.59
2023-04-24T00:14:17.819Z,99126.00
2023-04-24T00:19:22.352Z,99125.66
2023-04-24T00:24:23.223Z,99136.16
2023-04-24T00:29:23.855Z,99158.03
2023-04-24T00:34:25.801Z,99154.00
2023-04-24T00:39:26.431Z,99152.44
2023-04-24T00:44:27.303Z,99143.63
2023-04-24T00:49:30.430Z,99144.97
2023-04-24T00:54:31.695Z,99143.44
2023-04-24T00:59:32.960Z,99143.19
2023-04-24T01:04:35.173Z,99129.09
2023-04-24T01:09:37.394Z,99134.25
2023-04-24T01:14:38.413Z,99126.53
2023-04-24T01:19:41.242Z,99124.00
2023-04-24T01:24:44.652Z,99145.72
2023-04-24T01:29:46.767Z,99146.72
2023-04-24T01:34:48.743Z,99139.47
2023-04-24T01:39:50.749Z,99141.34
2023-04-24T01:44:53.376Z,99134.06
2023-04-24T01:49:54.247Z,99139.41
2023-04-24T01:54:56.813Z,99133.94
2023-04-24T01:59:57.645Z,99136.53
2023-04-24T02:04:58.529Z,99131.41
2023-04-24T02:10:00.823Z,99133.00
2023-04-24T02:15:01.680Z,99124.25
2023-04-24T02:20:02.388Z,99132.16
2023-04-24T02:25:04.578Z,99127.97
2023-04-24T02:30:06.230Z,99131.22
2023-04-24T02:35:07.956Z,99128.72
2023-04-24T02:40:11.464Z,99133.06
2023-04-24T02:45:12.618Z,99137.56
2023-04-24T02:50:13.792Z,99123.41
2023-04-24T02:55:16.832Z,99122.31
2023-04-24T03:00:17.845Z,99131.75
2023-04-24T03:05:18.541Z,99127.94
2023-04-24T03:10:20.561Z,99123.84
2023-04-24T03:15:22.958Z,99125.25
2023-04-24T03:20:23.604Z,99120.94
2023-04-24T03:25:26.141Z,99123.31
2023-04-24T03:30:27.183Z,99122.53
2023-04-24T03:35:32.513Z,99121.03
2023-04-24T03:40:37.737Z,99132.38
2023-04-24T03:45:46.136Z,99138.94
2023-04-24T03:50:47.995Z,99140.00
2023-04-24T03:55:50.771Z,99146.06
2023-04-24T04:00:52.201Z,99148.75
2023-04-24T04:06:20.396Z,99162.84
2023-04-24T04:11:22.788Z,99170.59
2023-04-24T04:16:23.504Z,99169.34
2023-04-24T04:21:28.971Z,99158.88
2023-04-24T04:26:41.593Z,99165.47
2023-04-24T04:31:44.631Z,99158.59
2023-04-24T04:36:47.645Z,99159.69
2023-04-24T04:42:09.865Z,99161.72
2023-04-24T04:47:14.845Z,99156.22
2023-04-24T04:52:17.996Z,99148.03
2023-04-24T04:57:22.489Z,99154.22
2023-04-24T05:02:23.821Z,99150.53
2023-04-24T05:07:24.659Z,99165.53
2023-04-24T05:12:30.102Z,99164.81
2023-04-24T05:17:32.057Z,99163.38
2023-04-24T05:22:33.929Z,99164.19
2023-04-24T05:27:36.310Z,99160.66
2023-04-24T05:32:42.400Z,99164.06
2023-04-24T05:37:43.081Z,99166.47
2023-04-24T05:42:46.119Z,99154.75
2023-04-24T05:47:46.823Z,99158.47
2023-04-24T05:52:47.602Z,99157.06
2023-04-24T05:58:02.732Z,99166.22
2023-04-24T06:03:05.215Z,99168.06
2023-04-24T06:08:06.437Z,99172.13
2023-04-24T06:13:12.268Z,99170.75
2023-04-24T06:18:23.958Z,99162.69
2023-04-24T06:23:24.619Z,99163.63
2023-04-24T06:28:26.673Z,99166.59
2023-04-24T06:33:27.374Z,99166.75
2023-04-24T06:38:28.162Z,99171.59
2023-04-24T06:43:30.108Z,99166.78
2023-04-24T06:48:30.837Z,99164.97
2023-04-24T06:53:31.471Z,99156.63
2023-04-24T06:58:33.913Z,99167.38
2023-04-24T07:03:34.726Z,99166.16
2023-04-24T07:08:36.813Z,99174.94
2023-04-24T07:13:42.810Z,99173.81
2023-04-24T07:18:43.544Z,99165.44
2023-04-24T07:23:44.142Z,99174.50
2023-04-24T07:28:46.478Z,99177.03
2023-04-24T07:33:47.088Z,99185.03
2023-04-24T07:38:48.010Z,99176.94
2023-04-24T07:43:50.005Z,99180.69
2023-04-24T07:49:01.825Z,99183.69
2023-04-24T07:54:07.497Z,99178.78
2023-04-24T07:59:10.773Z,99182.50
2023-04-24T08:04:11.588Z,99196.47
2023-04-24T08:09:12.496Z,99191.38
2023-04-24T08:14:15.902Z,99180.69
2023-04-24T08:19:16.639Z,99187.88
2023-04-24T08:24:17.282Z,99186.81
2023-04-24T08:29:19.716Z,99186.97
2023-04-24T08:34:20.337Z,99188.84
2023-04-24T08:39:21.139Z,99185.75
2023-04-24T08:44:23.312Z,99184.44
2023-04-24T08:49:26.280Z,99201.63
2023-04-24T08:54:27.647Z,99193.19
2023-04-24T08:59:30.136Z,99184.66
2023-04-24T09:04:32.311Z,99190.84
2023-04-24T09:09:35.185Z,99192.50
2023-04-24T09:14:39.474Z,99195.53
2023-04-24T09:19:40.509Z,99195.34
2023-04-24T09:24:41.230Z,99186.41
2023-04-24T09:29:55.630Z,99188.72
2023-04-24T09:35:09.090Z,99194.31
2023-04-24T09:40:15.049Z,99192.59
2023-04-24T09:45:17.112Z,99196.81
2023-04-24T09:50:20.203Z,99188.38
2023-04-24T09:55:22.864Z,99190.56
2023-04-24T10:00:31.362Z,99189.25
2023-04-24T10:05:33.734Z,99201.25
2023-04-24T10:10:35.817Z,99196.47
2023-04-24T10:15:38.436Z,99201.22
2023-04-24T10:20:41.432Z,99194.84
2023-04-24T10:25:42.978Z,99181.09
2023-04-24T10:30:45.585Z,99180.00
2023-04-24T10:35:50.016Z,99172.38
2023-04-24T10:40:50.832Z,99171.59
2023-04-24T10:46:08.435Z,99175.22
2023-04-24T10:51:14.035Z,99183.75
2023-04-24T10:56:14.810Z,99171.44
2023-04-24T11:01:29.231Z,99172.13
2023-04-24T11:06:33.727Z,99174.88
2023-04-24T11:11:35.550Z,99181.00
2023-04-24T11:16:41.376Z,99182.84
2023-04-24T11:21:44.129Z,99181.72
2023-04-24T11:26:46.654Z,99191.50
2023-04-24T11:31:50.786Z,99191.19
2023-04-24T11:36:51.814Z,99198.59
2023-04-24T11:41:52.824Z,99197.66
2023-04-24T11:46:57.956Z,99193.25
2023-04-24T11:52:00.961Z,99173.63
2023-04-24T11:57:06.860Z,99181.94
2023-04-24T12:02:08.895Z,99178.13
2023-04-24T12:07:10.390Z,99174.59
2023-04-24T12:12:13.107Z,99179.72
2023-04-24T12:17:15.702Z,99192.78
2023-04-24T12:22:16.556Z,99193.16
2023-04-24T12:27:21.650Z,99187.84
2023-04-24T12:32:23.862Z,99198.06
2023-04-24T12:37:26.101Z,99195.06
2023-04-24T12:42:28.371Z,99185.84
2023-04-24T12:47:30.849Z,99198.72
2023-04-24T12:52:32.294Z,99182.66
2023-04-24T12:57:33.276Z,99199.22
2023-04-24T13:02:36.045Z,99193.25
2023-04-24T13:07:36.840Z,99194.50
2023-04-24T13:12:37.721Z,99175.75
2023-04-24T13:17:39.708Z,99188.66
2023-04-24T13:22:40.379Z,99179.19
2023-04-24T13:27:41.362Z,99172.91
2023-04-24T13:32:43.374Z,99187.13
2023-04-24T13:37:44.093Z,99186.03
2023-04-24T13:42:45.157Z,99184.41
2023-04-24T13:47:47.224Z,99183.09
2023-04-24T13:52:47.897Z,99179.94
2023-04-24T13:57:48.566Z,99202.00
2023-04-24T14:02:50.676Z,99191.50
2023-04-24T14:07:51.924Z,99196.47
2023-04-24T14:12:54.075Z,99184.28
2023-04-24T14:17:56.171Z,99180.88
2023-04-24T14:22:59.430Z,99171.16
2023-04-24T14:28:00.138Z,99180.78
2023-04-24T14:33:02.277Z,99168.16
2023-04-24T14:38:03.046Z,99160.91
2023-04-24T14:43:03.791Z,99175.91
2023-04-24T14:48:06.316Z,99162.38
2023-04-24T14:53:07.016Z,99169.81
2023-04-24T14:58:07.669Z,99188.91
2023-04-24T15:03:09.827Z,99192.00
2023-04-24T15:08:10.889Z,99184.31
2023-04-24T15:13:11.624Z,99201.06
2023-04-24T15:18:13.735Z,99204.81
2023-04-24T15:23:14.461Z,99195.91
2023-04-24T15:28:16.999Z,99206.34
2023-04-24T15:33:19.042Z,99209.88
2023-04-24T15:38:19.699Z,99219.34
2023-04-24T15:43:20.364Z,99226.03
2023-04-24T15:48:22.344Z,99228.59
2023-04-24T15:53:23.311Z,99235.31
2023-04-24T15:58:24.050Z,99232.50
2023-04-24T16:03:26.258Z,99251.81
2023-04-24T16:08:26.976Z,99245.31
2023-04-24T16:13:29.130Z,99245.66
2023-04-24T16:18:31.297Z,99260.56
2023-04-24T16:23:31.932Z,99241.44
2023-04-24T16:28:32.858Z,99252.69
2023-04-24T16:33:34.833Z,99263.28
2023-04-24T16:38:35.914Z,99278.25
2023-04-24T16:43:36.628Z,99279.06
2023-04-24T16:48:38.573Z,99319.03
2023-04-24T16:53:39.247Z,99288.91
2023-04-24T16:58:39.840Z,99295.22
2023-04-24T17:03:42.015Z,99303.06
2023-04-24T17:08:42.886Z,99299.53
2023-04-24T17:13:43.652Z,99301.47
2023-04-24T17:18:45.658Z,99307.72
2023-04-24T17:23:46.364Z,99312.28
2023-04-24T17:28:47.666Z,99333.78
2023-04-24T17:33:49.817Z,99335.13
2023-04-24T17:38:51.009Z,99351.03
2023-04-24T17:43:51.773Z,99359.34
2023-04-24T17:48:53.923Z,99359.94
2023-04-24T17:53:55.106Z,99374.63
2023-04-24T17:58:56.082Z,99383.53
2023-04-24T18:03:58.393Z,99390.34
2023-04-24T18:08:59.157Z,99403.78
2023-04-24T18:13:59.829Z,99415.50
2023-04-24T18:19:01.864Z,99432.84
2023-04-24T18:24:02.480Z,99440.88
2023-04-24T18:29:03.138Z,99446.81
2023-04-24T18:34:05.620Z,99448.31
2023-04-24T18:39:06.357Z,99443.63
2023-04-24T18:44:06.983Z,99457.91
2023-04-24T18:49:08.961Z,99467.91
2023-04-24T18:54:09.635Z,99469.91
2023-04-24T18:59:10.290Z,99483.56
2023-04-24T19:04:12.634Z,99481.94
2023-04-24T19:09:13.312Z,99497.94
2023-04-24T19:14:14.454Z,99502.47
2023-04-24T19:19:16.469Z,99511.13
2023-04-24T19:24:18.977Z,99507.81
2023-04-24T19:29:20.111Z,99519.88
2023-04-24T19:34:22.181Z,99525.50
2023-04-24T19:39:22.961Z,99526.50
2023-04-24T19:44:23.585Z,99522.63
2023-04-24T19:49:26.187Z,99525.75
2023-04-24T19:54:27.219Z,99524.72
2023-04-24T19:59:27.852Z,99524.06
2023-04-24T20:04:29.958Z,99522.63
2023-04-24T20:09:32.920Z,99526.94
2023-04-24T20:14:33.664Z,99532.94
2023-04-24T20:19:36.127Z,99542.63
2023-04-24T20:24:36.988Z,99544.28
2023-04-24T20:29:37.589Z,99547.84
2023-04-24T20:34:40.218Z,99549.59
2023-04-24T20:39:40.824Z,99549.06
2023-04-24T20:44:42.129Z,99546.59
2023-04-24T20:49:44.032Z,99547.81
2023-04-24T20:54:44.789Z,99559.44
2023-04-24T20:59:45.476Z,99551.56
2023-04-24T21:04:47.842Z,99564.03
2023-04-24T21:09:48.565Z,99558.94
2023-04-24T21:14:51.070Z,99557.34
2023-04-24T21:19:53.730Z,99551.34
2023-04-24T21:24:54.525Z,99558.16
2023-04-24T21:29:55.648Z,99553.09
2023-04-24T21:34:59.360Z,99550.34
2023-04-24T21:40:00.130Z,99542.75
2023-04-24T21:45:00.864Z,99544.06
2023-04-24T21:50:02.870Z,99539.84
2023-04-24T21:55:03.563Z,99529.78
2023-04-24T22:00:06.845Z,99532.22
2023-04-24T22:05:15.374Z,99523.66
2023-04-24T22:10:17.232Z,99528.75
2023-04-24T22:15:17.906Z,99526.44
2023-04-24T22:20:20.166Z,99529.94
2023-04-24T22:25:20.994Z,99533.00
2023-04-24T22:30:21.693Z,99533.88
2023-04-24T22:35:23.608Z,99538.47
2023-04-24T22:40:25.681Z,99529.97
2023-04-24T22:45:26.497Z,99536.19
2023-04-24T22:50:29.057Z,99541.56
2023-04-24T22:55:29.666Z,99545.13
2023-04-24T23:00:30.526Z,99546.09
2023-04-24T23:05:32.615Z,99553.97
2023-04-24T23:10:33.276Z,99560.06
2023-04-24T23:15:34.721Z,99550.84
2023-04-24T23:20:38.507Z,99562.50
2023-04-24T23:25:39.378Z,99556.38
2023-04-24T23:30:39.960Z,99558.13
2023-04-24T23:35:41.964Z,99548.78
2023-04-24T23:40:42.683Z,99555.47
2023-04-24T23:45:43.347Z,99541.38
2023-04-24T23:50:45.942Z,99543.94
2023-04-24T23:55:46.583Z,99543.06
